createdAt,value
2022-10-16T04:35:19.654Z,9.40
2022-10-16T04:40:22.395Z,8.00
2022-10-16T04:45:25.265Z,6.93
2022-10-16T04:50:28.031Z,8.17
2022-10-16T04:55:31.341Z,8.60
2022-10-16T05:00:34.174Z,8.30
2022-10-16T05:05:37.525Z,8.40
2022-10-16T05:10:40.526Z,8.50
2022-10-16T05:15:43.316Z,8.97
2022-10-16T05:20:46.257Z,8.90
2022-10-16T05:25:59.460Z,9.10
2022-10-16T05:31:09.803Z,9.47
2022-10-16T05:36:13.928Z,8.87
2022-10-16T05:41:20.962Z,9.63
2022-10-16T05:46:23.657Z,10.00
2022-10-16T05:51:26.525Z,10.33
2022-10-16T05:56:29.665Z,9.90
2022-10-16T06:01:33.069Z,10.13
2022-10-16T06:06:37.343Z,10.40
2022-10-16T06:11:40.129Z,8.97
2022-10-16T06:16:42.991Z,9.87
2022-10-16T06:21:45.766Z,9.63
2022-10-16T06:26:48.473Z,9.50
2022-10-16T06:31:51.183Z,9.40
2022-10-16T06:36:54.292Z,9.90
2022-10-16T06:41:57.067Z,8.37
2022-10-16T06:46:59.793Z,8.20
2022-10-16T06:52:03.027Z,8.53
2022-10-16T06:57:05.713Z,9.40
2022-10-16T07:02:09.555Z,9.87
2022-10-16T07:07:12.253Z,9.43
2022-10-16T07:12:14.958Z,8.97
2022-10-16T07:17:17.670Z,8.10
2022-10-16T07:22:20.678Z,8.47
2022-10-16T07:27:25.024Z,7.73
2022-10-16T07:32:28.531Z,8.07
2022-10-16T07:37:31.487Z,7.47
2022-10-16T07:42:34.246Z,7.57
2022-10-16T07:47:36.943Z,7.17
2022-10-16T07:52:39.691Z,7.47
2022-10-16T07:57:42.407Z,7.43
2022-10-16T08:02:45.125Z,7.40
2022-10-16T08:07:51.343Z,7.50
2022-10-16T08:12:54.467Z,7.77
2022-10-16T08:18:03.068Z,7.53
2022-10-16T08:23:06.163Z,6.63
2022-10-16T08:28:10.646Z,6.70
2022-10-16T08:33:13.332Z,7.00
2022-10-16T08:38:16.062Z,6.47
2022-10-16T08:43:30.787Z,6.57
2022-10-16T08:48:53.808Z,5.93
2022-10-16T08:53:58.910Z,7.10
2022-10-16T08:59:03.067Z,6.53
2022-10-16T09:04:43.712Z,6.47
2022-10-16T09:10:14.402Z,7.13
2022-10-16T09:15:17.039Z,6.43
2022-10-16T09:20:31.808Z,6.57
2022-10-16T09:25:34.701Z,6.17
2022-10-16T09:30:38.272Z,6.37
2022-10-16T09:35:41.949Z,6.00
2022-10-16T09:40:44.737Z,6.33
2022-10-16T09:46:05.689Z,6.23
2022-10-16T09:51:31.829Z,5.90
2022-10-16T09:56:47.810Z,5.93
2022-10-16T10:02:04.494Z,6.33
2022-10-16T10:07:08.024Z,5.93
2022-10-16T10:12:24.534Z,6.53
2022-10-16T10:17:30.354Z,5.73
2022-10-16T10:22:39.940Z,6.43
2022-10-16T10:27:54.691Z,5.50
2022-10-16T10:33:02.903Z,5.60
2022-10-16T10:38:25.911Z,5.67
2022-10-16T10:43:46.647Z,5.10
2022-10-16T10:49:02.221Z,5.70
2022-10-16T10:54:23.186Z,5.13
2022-10-16T10:59:34.940Z,5.45
2022-10-16T11:05:11.625Z,5.23
2022-10-16T11:10:27.486Z,4.97
2022-10-16T11:15:37.002Z,5.37
2022-10-16T11:21:00.613Z,5.23
2022-10-16T11:26:07.753Z,5.33
2022-10-16T11:31:31.218Z,5.60
2022-10-16T11:36:39.119Z,5.82
2022-10-16T11:42:15.678Z,6.25
2022-10-16T11:47:57.983Z,4.97
2022-10-16T11:53:35.339Z,6.13
2022-10-16T11:59:00.030Z,5.72
2022-10-16T12:04:18.020Z,5.85
2022-10-16T12:09:27.382Z,5.20
2022-10-16T12:14:57.394Z,5.23
2022-10-16T12:20:21.764Z,5.53
2022-10-16T12:25:40.236Z,5.38
2022-10-16T12:30:44.416Z,5.32
2022-10-16T12:35:47.406Z,5.63
2022-10-16T12:41:05.577Z,5.55
2022-10-16T12:46:31.316Z,6.25
2022-10-16T12:51:33.958Z,6.22
2022-10-16T12:57:01.864Z,6.32
2022-10-16T13:02:18.024Z,6.80
2022-10-16T13:07:37.526Z,6.40
2022-10-16T13:12:58.205Z,6.53
2022-10-16T13:18:15.673Z,6.82
2022-10-16T13:23:24.732Z,7.57
2022-10-16T13:28:34.623Z,6.75
2022-10-16T13:33:40.664Z,7.45
2022-10-16T13:38:43.565Z,6.82
2022-10-16T13:43:48.932Z,6.47
2022-10-16T13:49:03.443Z,6.07
2022-10-16T13:54:06.145Z,6.47
2022-10-16T13:59:29.651Z,6.13
2022-10-16T14:04:34.035Z,6.45
2022-10-16T14:09:37.538Z,6.18
2022-10-16T14:14:44.535Z,6.65
2022-10-16T14:19:51.515Z,6.53
2022-10-16T14:24:57.954Z,6.68
2022-10-16T14:30:15.546Z,6.35
2022-10-16T14:35:40.149Z,6.15
2022-10-16T14:40:48.829Z,6.85
2022-10-16T14:45:56.714Z,7.00
2022-10-16T14:50:59.454Z,7.18
2022-10-16T14:56:09.016Z,6.72
2022-10-16T15:01:12.655Z,6.15
2022-10-16T15:06:16.925Z,6.90
2022-10-16T15:11:20.830Z,6.82
2022-10-16T15:16:23.558Z,6.70
2022-10-16T15:21:31.548Z,6.80
2022-10-16T15:26:34.240Z,6.87
2022-10-16T15:31:38.408Z,6.53
2022-10-16T15:36:41.485Z,7.60
2022-10-16T15:41:52.873Z,6.73
2022-10-16T15:46:57.030Z,8.07
2022-10-16T15:51:59.758Z,7.60
2022-10-16T15:57:02.480Z,8.00
2022-10-16T16:02:05.273Z,7.70
2022-10-16T16:07:10.837Z,6.70
2022-10-16T16:12:13.557Z,8.00
2022-10-16T16:17:16.564Z,7.57
2022-10-16T16:22:19.387Z,7.57
2022-10-16T16:27:22.255Z,8.07
2022-10-16T16:32:25.055Z,9.00
2022-10-16T16:37:28.010Z,9.80
2022-10-16T16:42:31.677Z,9.97
2022-10-16T16:47:34.371Z,9.73
2022-10-16T16:52:37.523Z,9.77
2022-10-16T16:57:40.277Z,8.90
2022-10-16T17:02:44.296Z,9.17
2022-10-16T17:07:47.008Z,9.67
2022-10-16T17:12:49.858Z,9.77
2022-10-16T17:17:52.601Z,8.87
2022-10-16T17:22:55.310Z,10.17
2022-10-16T17:27:58.088Z,10.73
2022-10-16T17:33:01.394Z,10.60
2022-10-16T17:38:04.338Z,11.20
2022-10-16T17:43:08.234Z,10.43
2022-10-16T17:48:10.920Z,10.23
2022-10-16T17:53:14.140Z,11.67
2022-10-16T17:58:16.854Z,10.77
2022-10-16T18:03:19.618Z,12.27
2022-10-16T18:08:26.383Z,10.87
2022-10-16T18:13:32.022Z,11.97
2022-10-16T18:18:34.752Z,11.50
2022-10-16T18:23:38.203Z,12.10
2022-10-16T18:28:41.669Z,11.90
2022-10-16T18:33:48.753Z,13.20
2022-10-16T18:38:52.213Z,12.77
2022-10-16T18:43:56.347Z,13.87
2022-10-16T18:49:00.457Z,15.00
2022-10-16T18:54:08.017Z,13.50
2022-10-16T18:59:11.296Z,14.13
2022-10-16T19:04:17.218Z,15.07
2022-10-16T19:09:21.712Z,13.13
2022-10-16T19:14:25.235Z,12.13
2022-10-16T19:19:28.014Z,12.43
2022-10-16T19:24:30.840Z,12.93
2022-10-16T19:29:33.840Z,11.73
2022-10-16T19:34:36.694Z,12.30
2022-10-16T19:39:39.464Z,10.97
2022-10-16T19:44:42.126Z,12.40
2022-10-16T19:49:44.909Z,11.20
2022-10-16T19:54:47.806Z,11.30
2022-10-16T19:59:54.390Z,11.77
2022-10-16T20:04:57.084Z,11.93
2022-10-16T20:09:59.779Z,11.47
2022-10-16T20:15:03.889Z,13.37
2022-10-16T20:20:07.073Z,12.13
2022-10-16T20:25:10.202Z,11.97
2022-10-16T20:30:13.217Z,12.07
2022-10-16T20:35:16.125Z,11.73
2022-10-16T20:40:20.953Z,11.50
2022-10-16T20:45:23.681Z,11.13
2022-10-16T20:50:32.668Z,12.63
2022-10-16T20:55:37.397Z,12.33
2022-10-16T21:00:40.789Z,12.23
2022-10-16T21:05:43.687Z,12.03
2022-10-16T21:10:46.381Z,12.47
2022-10-16T21:15:49.111Z,12.60
2022-10-16T21:20:51.813Z,11.97
2022-10-16T21:25:54.654Z,12.70
2022-10-16T21:30:57.520Z,12.10
2022-10-16T21:36:01.675Z,11.87
2022-10-16T21:41:22.360Z,11.97
2022-10-16T21:46:28.580Z,11.07
2022-10-16T21:51:36.455Z,11.90
2022-10-16T21:56:39.504Z,12.10
2022-10-16T22:01:43.230Z,12.37
2022-10-16T22:06:46.996Z,12.53
2022-10-16T22:11:50.892Z,11.70
2022-10-16T22:16:53.752Z,11.60
2022-10-16T22:21:57.343Z,11.77
2022-10-16T22:27:00.055Z,12.23
2022-10-16T22:32:02.720Z,12.10
2022-10-16T22:37:05.418Z,10.97
2022-10-16T22:42:08.186Z,12.10
2022-10-16T22:47:10.897Z,11.90
2022-10-16T22:52:13.723Z,12.53
2022-10-16T22:57:16.414Z,12.67
2022-10-16T23:02:19.118Z,12.03
2022-10-16T23:07:21.802Z,12.47
2022-10-16T23:12:26.488Z,12.47
2022-10-16T23:17:29.500Z,11.43
2022-10-16T23:22:32.212Z,11.53
2022-10-16T23:27:35.252Z,10.90
